Time;durP1;ratioP1;P1;durP2;ratioP2;P2;SDS_P1;SDS_P2;PMS_P1;PMS_P2;Temp;Humidity;BMP_temperature;BMP_pressure;BME280_temperature;BME280_humidity;BME280_pressure;Samples;Min_cycle;Max_cycle;Signal;HPM_P1;HPM_P2
2022/01/10 00:00:57;;;;;;;6.40;3.38;;;;;;;;;;5133069;27;20065;-73
2022/01/10 00:03:24;;;;;;;7.15;3.90;;;;;;;;;;5132052;27;20024;-73
2022/01/10 00:05:50;;;;;;;6.47;4.60;;;;;;;;;;5135008;27;20092;-73
2022/01/10 00:08:17;;;;;;;9.70;5.35;;;;;;;;;;5131719;27;20033;-73
2022/01/10 00:10:44;;;;;;;10.93;5.40;;;;;;;;;;5131237;27;20021;-73
2022/01/10 00:13:11;;;;;;;12.55;6.82;;;;;;;;;;5131822;27;20035;-74
2022/01/10 00:15:37;;;;;;;12.18;6.55;;;;;;;;;;5131791;27;20024;-74
2022/01/10 00:18:04;;;;;;;7.55;4.35;;;;;;;;;;5134614;27;20061;-73
2022/01/10 00:20:30;;;;;;;9.02;4.57;;;;;;;;;;5133404;27;20049;-73
2022/01/10 00:22:57;;;;;;;8.35;5.63;;;;;;;;;;5131096;27;20426;-73
2022/01/10 00:25:23;;;;;;;7.35;4.40;;;;;;;;;;5130666;27;20034;-74
2022/01/10 00:27:52;;;;;;;10.80;5.63;;;;;;;;;;5131561;27;20494;-74
2022/01/10 00:30:19;;;;;;;7.20;4.47;;;;;;;;;;5132393;27;20039;-73
2022/01/10 00:32:46;;;;;;;6.00;4.00;;;;;;;;;;5133729;27;20045;-73
2022/01/10 00:35:13;;;;;;;4.95;2.90;;;;;;;;;;5130668;27;20019;-73
2022/01/10 00:37:41;;;;;;;2.80;1.80;;;;;;;;;;5130458;27;20019;-73
2022/01/10 00:40:08;;;;;;;1.10;0.75;;;;;;;;;;5131688;27;20035;-74
2022/01/10 00:42:34;;;;;;;0.10;0.10;;;;;;;;;;5130840;27;20019;-74
2022/01/10 00:45:07;;;;;;;0.17;0.13;;;;;;;;;;5133812;27;20027;-73
2022/01/10 00:47:33;;;;;;;0.15;0.15;;;;;;;;;;5133438;27;20047;-73
2022/01/10 00:50:00;;;;;;;0.10;0.10;;;;;;;;;;5130172;27;20049;-73
2022/01/10 00:52:26;;;;;;;0.22;0.20;;;;;;;;;;5129788;27;20041;-73
2022/01/10 00:54:53;;;;;;;0.10;0.10;;;;;;;;;;5130301;27;20027;-73
2022/01/10 00:57:19;;;;;;;0.10;0.10;;;;;;;;;;5131595;27;20029;-73
2022/01/10 00:59:45;;;;;;;0.10;0.10;;;;;;;;;;5114558;27;20045;-73
2022/01/10 01:02:12;;;;;;;0.10;0.10;;;;;;;;;;5130580;27;20035;-73
2022/01/10 01:04:38;;;;;;;0.10;0.10;;;;;;;;;;5114783;27;20029;-73
2022/01/10 01:07:04;;;;;;;0.20;0.20;;;;;;;;;;5130202;27;20011;-73
2022/01/10 01:09:32;;;;;;;0.20;0.20;;;;;;;;;;5130545;27;20027;-73
2022/01/10 01:17:25;;;;;;;0.63;0.30;;;;;;;;;;5129631;27;20028;-73
2022/01/10 01:25:13;;;;;;;0.30;0.30;;;;;;;;;;5129773;27;20023;-74
2022/01/10 01:27:40;;;;;;;0.88;0.52;;;;;;;;;;5130357;27;20035;-73
2022/01/10 01:30:07;;;;;;;1.02;0.40;;;;;;;;;;5132566;27;20015;-73
2022/01/10 01:32:34;;;;;;;0.85;0.50;;;;;;;;;;5131066;27;20023;-74
2022/01/10 01:35:05;;;;;;;0.93;0.70;;;;;;;;;;5129798;27;20015;-73
2022/01/10 01:37:32;;;;;;;1.05;0.52;;;;;;;;;;5129953;27;20027;-73
2022/01/10 01:39:59;;;;;;;0.93;0.60;;;;;;;;;;5129722;27;20035;-73
2022/01/10 01:42:43;;;;;;;0.75;0.70;;;;;;;;;;5111615;27;20023;-73
2022/01/10 01:45:11;;;;;;;0.90;0.50;;;;;;;;;;5129983;27;20054;-74
2022/01/10 01:47:38;;;;;;;1.08;0.40;;;;;;;;;;5130408;27;20039;-73
2022/01/10 01:50:06;;;;;;;0.50;0.30;;;;;;;;;;5129017;27;20504;-73
2022/01/10 01:52:32;;;;;;;0.40;0.40;;;;;;;;;;5129719;27;20011;-73
2022/01/10 01:54:59;;;;;;;0.40;0.40;;;;;;;;;;5129490;27;20067;-73
2022/01/10 01:57:26;;;;;;;0.30;0.30;;;;;;;;;;5130696;27;20027;-73
2022/01/10 01:59:52;;;;;;;1.10;0.77;;;;;;;;;;5114556;27;20038;-74
2022/01/10 02:02:19;;;;;;;0.47;0.47;;;;;;;;;;5129316;27;20097;-73
2022/01/10 02:04:45;;;;;;;0.52;0.40;;;;;;;;;;5129258;27;20019;-74
2022/01/10 02:07:12;;;;;;;0.35;0.32;;;;;;;;;;5129154;27;20023;-73
2022/01/10 02:09:38;;;;;;;1.38;0.70;;;;;;;;;;5129577;27;20427;-73
2022/01/10 02:12:05;;;;;;;0.40;0.40;;;;;;;;;;5131230;27;20366;-73
2022/01/10 02:14:31;;;;;;;0.40;0.40;;;;;;;;;;5130462;27;20503;-73
2022/01/10 02:16:58;;;;;;;1.30;0.50;;;;;;;;;;5129033;27;20011;-73
2022/01/10 02:19:24;;;;;;;0.50;0.40;;;;;;;;;;5128862;27;20015;-74
2022/01/10 02:21:51;;;;;;;0.77;0.50;;;;;;;;;;5129081;27;20100;-74
2022/01/10 02:24:17;;;;;;;2.35;0.50;;;;;;;;;;5130473;27;20034;-73
2022/01/10 02:26:48;;;;;;;0.30;0.30;;;;;;;;;;5131060;27;20031;-73
2022/01/10 02:29:14;;;;;;;0.55;0.40;;;;;;;;;;5113644;28;20023;-73
2022/01/10 02:31:41;;;;;;;1.13;0.50;;;;;;;;;;5128834;28;20412;-73
2022/01/10 02:34:08;;;;;;;0.90;0.50;;;;;;;;;;5128673;28;20019;-73
2022/01/10 02:36:34;;;;;;;0.88;0.82;;;;;;;;;;5130095;28;20504;-73
2022/01/10 02:39:02;;;;;;;1.02;0.90;;;;;;;;;;5131979;28;20120;-73
2022/01/10 02:41:31;;;;;;;0.70;0.68;;;;;;;;;;5129477;28;20462;-73
2022/01/10 02:43:58;;;;;;;1.17;0.70;;;;;;;;;;5128690;28;20492;-73
2022/01/10 02:46:25;;;;;;;1.02;0.60;;;;;;;;;;5128882;28;20031;-73
2022/01/10 02:48:52;;;;;;;0.90;0.80;;;;;;;;;;5128975;28;20035;-73
2022/01/10 02:51:19;;;;;;;1.80;1.30;;;;;;;;;;5130051;28;20432;-73
2022/01/10 02:53:45;;;;;;;3.40;1.80;;;;;;;;;;5131303;28;20023;-73
2022/01/10 02:56:12;;;;;;;2.00;1.20;;;;;;;;;;5128176;28;20026;-73
2022/01/10 02:58:39;;;;;;;3.50;0.90;;;;;;;;;;5128384;28;20016;-73
2022/01/10 03:01:05;;;;;;;4.18;1.17;;;;;;;;;;5128443;28;20035;-74
2022/01/10 03:03:31;;;;;;;2.08;1.10;;;;;;;;;;5129076;28;20019;-73
2022/01/10 03:05:59;;;;;;;2.13;1.50;;;;;;;;;;5132387;28;20059;-74
2022/01/10 03:08:26;;;;;;;1.10;1.00;;;;;;;;;;5112259;28;20023;-73
2022/01/10 03:10:53;;;;;;;1.35;1.17;;;;;;;;;;5128560;28;20031;-73
2022/01/10 03:13:19;;;;;;;1.08;0.95;;;;;;;;;;5128270;28;20015;-73
2022/01/10 03:15:46;;;;;;;0.88;0.75;;;;;;;;;;5130215;27;20027;-73
2022/01/10 03:18:12;;;;;;;0.85;0.85;;;;;;;;;;5134811;27;20019;-73
2022/01/10 03:20:38;;;;;;;1.48;0.80;;;;;;;;;;5133910;27;20035;-73
2022/01/10 03:23:05;;;;;;;1.25;0.95;;;;;;;;;;5132419;27;20055;-73
2022/01/10 03:25:32;;;;;;;1.27;0.90;;;;;;;;;;5131813;27;20400;-73
2022/01/10 03:27:58;;;;;;;0.98;0.77;;;;;;;;;;5132254;27;20443;-74
2022/01/10 03:30:26;;;;;;;3.45;1.00;;;;;;;;;;5133321;27;20034;-73
2022/01/10 03:32:53;;;;;;;1.30;1.20;;;;;;;;;;5135694;27;20381;-73
2022/01/10 03:35:19;;;;;;;1.27;1.10;;;;;;;;;;5131791;27;20460;-73
2022/01/10 03:37:46;;;;;;;1.60;0.98;;;;;;;;;;5132058;27;20019;-73
2022/01/10 03:40:12;;;;;;;1.17;0.82;;;;;;;;;;5116324;27;20053;-72
2022/01/10 03:42:39;;;;;;;1.60;1.10;;;;;;;;;;5132412;27;20031;-73
2022/01/10 03:45:06;;;;;;;2.35;1.10;;;;;;;;;;5134626;27;20030;-73
2022/01/10 03:47:32;;;;;;;1.00;0.80;;;;;;;;;;5133026;27;20404;-73
2022/01/10 03:49:59;;;;;;;1.80;0.88;;;;;;;;;;5131831;27;20015;-73
2022/01/10 03:52:27;;;;;;;2.40;1.20;;;;;;;;;;5131827;27;20022;-73
2022/01/10 03:54:54;;;;;;;1.25;0.80;;;;;;;;;;5132787;27;20027;-74
2022/01/10 03:57:20;;;;;;;4.15;1.80;;;;;;;;;;5132937;27;20495;-73
2022/01/10 03:59:46;;;;;;;2.30;0.90;;;;;;;;;;5134202;27;20031;-73
2022/01/10 04:02:13;;;;;;;1.50;0.90;;;;;;;;;;5131517;27;20031;-73
2022/01/10 04:04:39;;;;;;;1.50;1.00;;;;;;;;;;5131669;27;20537;-73
2022/01/10 04:07:06;;;;;;;3.30;1.70;;;;;;;;;;5131702;27;20500;-73
2022/01/10 04:09:32;;;;;;;8.30;2.67;;;;;;;;;;5131677;27;20007;-73
2022/01/10 04:11:59;;;;;;;3.92;2.70;;;;;;;;;;5134910;27;20039;-73
2022/01/10 04:14:26;;;;;;;4.45;2.90;;;;;;;;;;5131797;27;20486;-73
2022/01/10 04:16:52;;;;;;;6.38;2.40;;;;;;;;;;5131417;27;20019;-73
2022/01/10 04:19:19;;;;;;;3.30;2.28;;;;;;;;;;5131280;27;20032;-73
2022/01/10 04:21:45;;;;;;;2.60;1.60;;;;;;;;;;5131778;27;20068;-73
2022/01/10 04:24:12;;;;;;;3.05;1.85;;;;;;;;;;5133273;27;20023;-73
2022/01/10 04:26:38;;;;;;;2.83;1.85;;;;;;;;;;5132858;27;20027;-74
2022/01/10 04:29:05;;;;;;;3.03;1.85;;;;;;;;;;5115644;27;20015;-73
2022/01/10 04:31:31;;;;;;;3.03;1.90;;;;;;;;;;5115407;27;20027;-73
2022/01/10 04:33:58;;;;;;;3.05;2.20;;;;;;;;;;5132419;27;20470;-73
2022/01/10 04:36:24;;;;;;;3.47;2.08;;;;;;;;;;5131792;27;20030;-73
2022/01/10 04:38:50;;;;;;;3.03;1.95;;;;;;;;;;5134007;27;20038;-74
2022/01/10 04:41:17;;;;;;;1.67;1.10;;;;;;;;;;5131970;27;20400;-73
2022/01/10 04:43:43;;;;;;;22.48;10.65;;;;;;;;;;5130809;27;20023;-73
2022/01/10 04:46:09;;;;;;;11.85;5.82;;;;;;;;;;5130860;27;20053;-73
2022/01/10 04:48:37;;;;;;;6.60;2.65;;;;;;;;;;5130730;27;20498;-73
2022/01/10 04:51:16;;;;;;;3.00;1.80;;;;;;;;;;5133319;27;20450;-72
2022/01/10 04:53:44;;;;;;;1.67;1.13;;;;;;;;;;5132827;27;20067;-73
2022/01/10 04:56:11;;;;;;;1.30;1.17;;;;;;;;;;5130619;27;20433;-74
2022/01/10 04:58:37;;;;;;;1.98;1.33;;;;;;;;;;5130280;27;20029;-74
2022/01/10 05:01:04;;;;;;;1.38;1.20;;;;;;;;;;5130164;27;20035;-73
2022/01/10 05:03:31;;;;;;;2.50;1.33;;;;;;;;;;5130680;27;20023;-73
2022/01/10 05:05:57;;;;;;;2.17;1.50;;;;;;;;;;5133610;27;20023;-73
2022/01/10 05:08:24;;;;;;;2.50;1.80;;;;;;;;;;5130586;27;20053;-74
2022/01/10 05:10:51;;;;;;;3.83;2.10;;;;;;;;;;5129994;27;20034;-73
2022/01/10 05:13:18;;;;;;;2.47;1.73;;;;;;;;;;5131685;27;20027;-73
2022/01/10 05:15:49;;;;;;;1.88;1.48;;;;;;;;;;5130519;27;20022;-73
2022/01/10 05:18:16;;;;;;;3.33;1.60;;;;;;;;;;5132225;27;20026;-73
2022/01/10 05:20:42;;;;;;;1.95;1.60;;;;;;;;;;5131440;27;20509;-73
2022/01/10 05:23:08;;;;;;;2.80;1.50;;;;;;;;;;5129703;27;20027;-73
2022/01/10 05:25:39;;;;;;;2.17;1.77;;;;;;;;;;5129846;27;20030;-74
2022/01/10 05:28:06;;;;;;;3.25;1.77;;;;;;;;;;5129800;27;20059;-73
2022/01/10 05:30:33;;;;;;;2.45;1.52;;;;;;;;;;5129811;27;20386;-73
2022/01/10 05:32:59;;;;;;;1.95;1.75;;;;;;;;;;5133097;27;20496;-73
2022/01/10 05:35:26;;;;;;;2.10;1.70;;;;;;;;;;5129842;27;20031;-72
2022/01/10 05:37:52;;;;;;;2.58;2.10;;;;;;;;;;5130032;27;20011;-73
2022/01/10 05:40:19;;;;;;;2.72;2.25;;;;;;;;;;5113539;27;20025;-73
2022/01/10 05:42:46;;;;;;;5.78;2.63;;;;;;;;;;5129584;27;20024;-73
2022/01/10 05:45:12;;;;;;;5.50;2.20;;;;;;;;;;5131977;27;20023;-73
2022/01/10 05:47:44;;;;;;;3.25;2.30;;;;;;;;;;5131010;27;20043;-73
2022/01/10 05:50:11;;;;;;;3.28;2.45;;;;;;;;;;5128966;27;20023;-74
2022/01/10 05:52:38;;;;;;;2.28;1.95;;;;;;;;;;5130839;27;20015;-73
2022/01/10 05:55:05;;;;;;;2.45;2.10;;;;;;;;;;5129361;27;20370;-73
2022/01/10 05:57:31;;;;;;;3.28;2.20;;;;;;;;;;5129739;27;20019;-73
2022/01/10 05:59:58;;;;;;;1.92;1.70;;;;;;;;;;5132948;27;20035;-74
2022/01/10 06:02:24;;;;;;;1.88;1.52;;;;;;;;;;5129466;27;20030;-73
2022/01/10 06:04:51;;;;;;;2.08;1.70;;;;;;;;;;5128528;27;20525;-73
2022/01/10 06:07:17;;;;;;;3.33;2.45;;;;;;;;;;5129144;27;20485;-73
2022/01/10 06:09:43;;;;;;;5.30;2.85;;;;;;;;;;5129280;27;20020;-73
2022/01/10 06:12:10;;;;;;;4.00;2.78;;;;;;;;;;5131533;27;20027;-73
2022/01/10 06:14:36;;;;;;;3.72;2.50;;;;;;;;;;5130437;27;20031;-74
2022/01/10 06:17:03;;;;;;;5.00;3.05;;;;;;;;;;5129154;27;20381;-73
2022/01/10 06:19:29;;;;;;;7.00;5.57;;;;;;;;;;5128468;27;20026;-73
2022/01/10 06:21:55;;;;;;;8.50;6.40;;;;;;;;;;5128575;27;20396;-73
2022/01/10 06:24:23;;;;;;;10.85;7.95;;;;;;;;;;5129652;27;20443;-73
2022/01/10 06:26:50;;;;;;;11.07;7.72;;;;;;;;;;5131736;27;20423;-73
2022/01/10 06:29:16;;;;;;;12.77;9.38;;;;;;;;;;5128369;28;20011;-74
2022/01/10 06:31:42;;;;;;;11.63;9.00;;;;;;;;;;5129827;28;20500;-74
2022/01/10 06:34:09;;;;;;;9.65;6.63;;;;;;;;;;5128185;28;20027;-73
2022/01/10 06:36:35;;;;;;;12.52;7.82;;;;;;;;;;5128910;28;20023;-73
2022/01/10 06:39:02;;;;;;;15.95;10.50;;;;;;;;;;5131420;28;20087;-73
2022/01/10 06:41:28;;;;;;;13.93;9.20;;;;;;;;;;5129204;28;20027;-73
2022/01/10 06:43:54;;;;;;;14.57;7.43;;;;;;;;;;5128268;28;20514;-73
2022/01/10 06:46:21;;;;;;;8.85;5.53;;;;;;;;;;5128503;28;20034;-73
2022/01/10 06:48:48;;;;;;;10.15;5.60;;;;;;;;;;5128098;28;20032;-73
2022/01/10 06:51:14;;;;;;;9.02;5.70;;;;;;;;;;5133514;27;20023;-74
2022/01/10 06:53:40;;;;;;;11.38;7.80;;;;;;;;;;5134834;27;20035;-73
2022/01/10 06:56:07;;;;;;;16.10;9.77;;;;;;;;;;5132983;27;20598;-73
2022/01/10 06:58:33;;;;;;;14.20;7.70;;;;;;;;;;5117065;27;20079;-73
2022/01/10 07:01:00;;;;;;;13.32;8.68;;;;;;;;;;5132554;27;20031;-73
2022/01/10 07:03:26;;;;;;;16.52;8.48;;;;;;;;;;5132967;27;20091;-73
2022/01/10 07:05:52;;;;;;;16.73;10.15;;;;;;;;;;5135854;27;20035;-74
2022/01/10 07:08:19;;;;;;;16.25;9.77;;;;;;;;;;5128225;27;20023;-73
2022/01/10 07:10:46;;;;;;;17.27;9.52;;;;;;;;;;5133277;27;20047;-74
2022/01/10 07:13:12;;;;;;;14.25;7.80;;;;;;;;;;5132682;27;20044;-73
2022/01/10 07:15:39;;;;;;;13.32;6.78;;;;;;;;;;5134289;27;20015;-74
2022/01/10 07:18:05;;;;;;;10.77;6.18;;;;;;;;;;5134358;27;20072;-74
2022/01/10 07:20:33;;;;;;;7.07;4.63;;;;;;;;;;5134574;27;20389;-73
2022/01/10 07:22:59;;;;;;;6.35;4.22;;;;;;;;;;5132522;27;20011;-74
2022/01/10 07:25:26;;;;;;;7.68;4.15;;;;;;;;;;5132025;27;20019;-74
2022/01/10 07:27:52;;;;;;;8.15;4.43;;;;;;;;;;5132670;27;20011;-73
2022/01/10 07:30:19;;;;;;;6.75;4.00;;;;;;;;;;5133643;27;20039;-74
2022/01/10 07:32:45;;;;;;;10.35;4.40;;;;;;;;;;5143820;27;20026;-73
2022/01/10 07:35:12;;;;;;;6.55;3.90;;;;;;;;;;5133459;27;20023;-73
2022/01/10 07:37:38;;;;;;;5.63;3.78;;;;;;;;;;5132187;27;20023;-74
2022/01/10 07:40:05;;;;;;;5.90;3.72;;;;;;;;;;5113402;27;20053;-73
2022/01/10 07:42:31;;;;;;;7.57;3.85;;;;;;;;;;5132331;27;20027;-73
2022/01/10 07:44:58;;;;;;;6.93;4.20;;;;;;;;;;5135225;27;20068;-73
2022/01/10 07:47:24;;;;;;;12.45;4.60;;;;;;;;;;5130788;27;20045;-73
2022/01/10 07:49:51;;;;;;;7.85;4.68;;;;;;;;;;5132760;27;20501;-73
2022/01/10 07:52:18;;;;;;;8.00;4.53;;;;;;;;;;5131700;27;20038;-73
2022/01/10 07:54:44;;;;;;;8.45;4.07;;;;;;;;;;5142030;27;20022;-73
2022/01/10 07:57:11;;;;;;;6.30;4.22;;;;;;;;;;5112030;27;20047;-73
2022/01/10 07:59:37;;;;;;;4.65;3.58;;;;;;;;;;5132194;27;20040;-73
2022/01/10 08:02:04;;;;;;;5.85;3.65;;;;;;;;;;5130375;27;20035;-74
2022/01/10 08:04:30;;;;;;;5.10;3.88;;;;;;;;;;5130881;27;20045;-73
2022/01/10 08:06:57;;;;;;;9.50;5.45;;;;;;;;;;5131011;27;20023;-73
2022/01/10 08:09:23;;;;;;;6.97;5.53;;;;;;;;;;5132230;27;20022;-73
2022/01/10 08:11:49;;;;;;;10.50;6.20;;;;;;;;;;5134032;27;20016;-73
2022/01/10 08:14:16;;;;;;;12.50;7.82;;;;;;;;;;5130551;27;20493;-74
2022/01/10 08:16:42;;;;;;;25.92;13.07;;;;;;;;;;5131386;27;20499;-73
2022/01/10 08:19:09;;;;;;;18.13;11.05;;;;;;;;;;5129766;27;20088;-74
2022/01/10 08:21:35;;;;;;;17.23;10.93;;;;;;;;;;5131257;27;20035;-73
2022/01/10 08:24:02;;;;;;;146.23;79.32;;;;;;;;;;5133283;27;20019;-73
2022/01/10 08:26:28;;;;;;;31.52;16.67;;;;;;;;;;5131573;27;20027;-72
2022/01/10 08:28:54;;;;;;;27.45;16.35;;;;;;;;;;5110896;27;20027;-74
2022/01/10 08:31:21;;;;;;;21.08;11.98;;;;;;;;;;5130344;27;20027;-74
2022/01/10 08:33:48;;;;;;;14.10;8.32;;;;;;;;;;5130374;27;20019;-74
2022/01/10 08:36:14;;;;;;;12.88;8.10;;;;;;;;;;5132527;27;20041;-73
2022/01/10 08:38:41;;;;;;;12.20;7.50;;;;;;;;;;5142310;27;20037;-72
2022/01/10 08:41:07;;;;;;;15.52;8.35;;;;;;;;;;5132294;27;20035;-73
2022/01/10 08:43:34;;;;;;;12.30;7.80;;;;;;;;;;5129219;27;20456;-73
2022/01/10 08:46:00;;;;;;;9.43;6.22;;;;;;;;;;5130073;27;20033;-73
2022/01/10 08:48:27;;;;;;;8.32;6.18;;;;;;;;;;5111934;27;20051;-73
2022/01/10 08:50:53;;;;;;;11.57;6.50;;;;;;;;;;5132969;27;20031;-73
2022/01/10 08:53:20;;;;;;;17.55;9.25;;;;;;;;;;5129409;27;20385;-73
2022/01/10 08:55:47;;;;;;;17.27;10.35;;;;;;;;;;5129686;27;20031;-73
2022/01/10 08:58:14;;;;;;;15.13;10.15;;;;;;;;;;5128757;27;20023;-73
2022/01/10 09:00:40;;;;;;;12.93;8.52;;;;;;;;;;5129858;27;20042;-74
2022/01/10 09:03:07;;;;;;;19.35;12.25;;;;;;;;;;5131843;27;20084;-73
2022/01/10 09:05:33;;;;;;;17.67;11.40;;;;;;;;;;5130806;27;20031;-72
2022/01/10 09:08:01;;;;;;;12.32;9.27;;;;;;;;;;5129104;27;20373;-72
2022/01/10 09:10:28;;;;;;;16.13;8.80;;;;;;;;;;5129806;27;20019;-73
2022/01/10 09:12:54;;;;;;;13.88;7.85;;;;;;;;;;5128331;27;20017;-74
2022/01/10 09:15:21;;;;;;;11.48;7.32;;;;;;;;;;5138993;27;20436;-74
2022/01/10 09:17:47;;;;;;;10.57;6.40;;;;;;;;;;5123225;27;20023;-74
2022/01/10 09:20:14;;;;;;;12.30;6.38;;;;;;;;;;5127481;27;20037;-74
2022/01/10 09:22:40;;;;;;;9.20;6.35;;;;;;;;;;5128479;27;20015;-74
2022/01/10 09:25:07;;;;;;;10.73;6.35;;;;;;;;;;5128785;27;20033;-73
2022/01/10 09:27:33;;;;;;;9.00;6.07;;;;;;;;;;5128158;27;20017;-73
2022/01/10 09:30:00;;;;;;;10.35;5.68;;;;;;;;;;5132328;27;20031;-74
2022/01/10 09:32:26;;;;;;;11.27;6.43;;;;;;;;;;5130693;27;20023;-74
2022/01/10 09:34:52;;;;;;;8.32;5.40;;;;;;;;;;5128632;27;20030;-74
2022/01/10 09:37:19;;;;;;;12.13;5.68;;;;;;;;;;5129027;27;20030;-73
2022/01/10 09:39:45;;;;;;;10.18;5.80;;;;;;;;;;5129464;27;20020;-74
2022/01/10 09:42:12;;;;;;;13.82;5.68;;;;;;;;;;5130419;27;20031;-74
2022/01/10 09:44:40;;;;;;;8.90;6.13;;;;;;;;;;5129870;27;20023;-73
2022/01/10 09:47:16;;;;;;;9.50;6.00;;;;;;;;;;5065661;28;20472;-72
2022/01/10 09:49:42;;;;;;;9.13;6.10;;;;;;;;;;5051878;28;20022;-72
2022/01/10 09:52:08;;;;;;;8.80;5.65;;;;;;;;;;5048152;28;20429;-71
2022/01/10 09:54:35;;;;;;;10.32;6.72;;;;;;;;;;5049180;28;20037;-72
2022/01/10 09:57:01;;;;;;;10.13;5.82;;;;;;;;;;5046906;28;20486;-73
2022/01/10 09:59:29;;;;;;;20.13;14.05;;;;;;;;;;5044822;28;20087;-72
2022/01/10 10:01:55;;;;;;;10.85;8.48;;;;;;;;;;5044121;28;20041;-73
2022/01/10 10:04:22;;;;;;;12.63;8.60;;;;;;;;;;5046542;28;20482;-72
2022/01/10 10:06:48;;;;;;;10.90;8.15;;;;;;;;;;5055528;28;20045;-72
2022/01/10 10:09:16;;;;;;;3.88;2.95;;;;;;;;;;5047024;28;20028;-73
2022/01/10 10:11:45;;;;;;;5.93;3.10;;;;;;;;;;5045564;28;20029;-72
2022/01/10 10:14:14;;;;;;;5.57;3.10;;;;;;;;;;5050878;28;20039;-73
2022/01/10 10:16:48;;;;;;;3.95;2.75;;;;;;;;;;5044532;28;20552;-72
2022/01/10 10:19:15;;;;;;;4.13;2.90;;;;;;;;;;5050541;28;20029;-71
2022/01/10 10:21:41;;;;;;;5.45;2.58;;;;;;;;;;5043068;28;20026;-71
2022/01/10 10:24:08;;;;;;;4.40;2.85;;;;;;;;;;5046310;28;20088;-71
2022/01/10 10:26:34;;;;;;;4.07;2.90;;;;;;;;;;5044407;28;20029;-71
2022/01/10 10:29:01;;;;;;;4.78;3.08;;;;;;;;;;5042929;28;20059;-70
2022/01/10 10:31:29;;;;;;;1.25;1.05;;;;;;;;;;5043365;28;20029;-72
2022/01/10 10:33:57;;;;;;;1.38;1.25;;;;;;;;;;5045722;28;20021;-72
2022/01/10 10:36:26;;;;;;;0.70;0.47;;;;;;;;;;5045045;28;20039;-73
2022/01/10 10:38:53;;;;;;;0.70;0.50;;;;;;;;;;5046382;28;20505;-72
2022/01/10 10:41:19;;;;;;;0.88;0.60;;;;;;;;;;5043518;28;20039;-72
2022/01/10 10:43:46;;;;;;;0.90;0.75;;;;;;;;;;5042775;28;20028;-71
2022/01/10 10:46:15;;;;;;;1.95;0.93;;;;;;;;;;5043397;28;20049;-72
2022/01/10 10:48:43;;;;;;;2.83;1.92;;;;;;;;;;5046355;28;20029;-72
2022/01/10 10:51:10;;;;;;;1.80;1.08;;;;;;;;;;5047183;28;20570;-71
2022/01/10 10:53:37;;;;;;;0.50;0.50;;;;;;;;;;5029933;28;20029;-72
2022/01/10 10:56:04;;;;;;;2.40;1.23;;;;;;;;;;5043276;28;20037;-71
2022/01/10 10:58:31;;;;;;;1.30;1.00;;;;;;;;;;5030839;28;20021;-73
2022/01/10 11:00:58;;;;;;;2.03;0.60;;;;;;;;;;5030542;28;20025;-70
2022/01/10 11:03:25;;;;;;;1.25;0.90;;;;;;;;;;5039034;28;20501;-72
2022/01/10 11:05:59;;;;;;;5.20;1.40;;;;;;;;;;5032633;28;20038;-73
2022/01/10 11:08:30;;;;;;;2.38;1.73;;;;;;;;;;5029697;28;20029;-72
2022/01/10 11:10:56;;;;;;;2.67;1.15;;;;;;;;;;5029918;28;20074;-72
2022/01/10 11:13:24;;;;;;;1.70;0.80;;;;;;;;;;5030124;28;20140;-72
2022/01/10 11:15:52;;;;;;;0.82;0.80;;;;;;;;;;5030368;28;20026;-73
2022/01/10 11:18:20;;;;;;;1.20;0.80;;;;;;;;;;5031765;28;20029;-72
2022/01/10 11:20:48;;;;;;;0.90;0.60;;;;;;;;;;5031848;28;20029;-71
2022/01/10 11:23:14;;;;;;;1.70;0.80;;;;;;;;;;5028052;28;20033;-72
2022/01/10 11:25:42;;;;;;;3.08;0.60;;;;;;;;;;5030006;28;20032;-72
2022/01/10 11:28:28;;;;;;;2.50;0.70;;;;;;;;;;5030071;28;20017;-72
2022/01/10 11:30:57;;;;;;;1.48;0.50;;;;;;;;;;5029796;28;20029;-73
2022/01/10 11:33:26;;;;;;;0.82;0.45;;;;;;;;;;5030422;28;20687;-71
2022/01/10 11:35:57;;;;;;;2.17;1.00;;;;;;;;;;5032424;28;20026;-73
2022/01/10 11:38:29;;;;;;;0.88;0.70;;;;;;;;;;5029301;28;20479;-72
2022/01/10 11:40:57;;;;;;;1.08;0.82;;;;;;;;;;5029740;28;20029;-73
2022/01/10 11:43:47;;;;;;;4.05;0.82;;;;;;;;;;5030537;28;20029;-72
2022/01/10 11:46:14;;;;;;;2.00;0.40;;;;;;;;;;5026357;28;20056;-73
2022/01/10 11:48:41;;;;;;;1.80;0.50;;;;;;;;;;5029615;28;20303;-73
2022/01/10 11:51:15;;;;;;;1.55;0.50;;;;;;;;;;5031762;28;20032;-73
2022/01/10 11:53:42;;;;;;;1.80;0.60;;;;;;;;;;5030463;28;20033;-73
2022/01/10 11:56:19;;;;;;;1.05;0.45;;;;;;;;;;5029300;28;20017;-73
2022/01/10 11:59:04;;;;;;;1.38;1.00;;;;;;;;;;5029058;28;20425;-73
2022/01/10 12:01:38;;;;;;;2.10;1.00;;;;;;;;;;5029172;28;20043;-73
2022/01/10 12:04:04;;;;;;;2.38;1.00;;;;;;;;;;5029186;28;20035;-73
2022/01/10 12:06:31;;;;;;;2.42;1.20;;;;;;;;;;5028983;28;20037;-73
2022/01/10 12:08:58;;;;;;;2.83;0.95;;;;;;;;;;5031419;28;20020;-71
2022/01/10 12:11:25;;;;;;;2.05;0.77;;;;;;;;;;5029037;28;20028;-73
2022/01/10 12:13:53;;;;;;;1.55;0.82;;;;;;;;;;5029019;28;20025;-73
2022/01/10 12:16:19;;;;;;;2.50;0.93;;;;;;;;;;5029147;28;20021;-73
2022/01/10 12:18:46;;;;;;;1.05;0.50;;;;;;;;;;5029197;28;20028;-73
2022/01/10 12:21:13;;;;;;;2.47;0.77;;;;;;;;;;5030235;28;20033;-72
2022/01/10 12:23:40;;;;;;;1.77;0.70;;;;;;;;;;5031706;28;20029;-72
2022/01/10 12:26:07;;;;;;;1.33;0.80;;;;;;;;;;5028839;28;20037;-74
2022/01/10 12:28:33;;;;;;;3.15;1.00;;;;;;;;;;5030945;28;20043;-72
2022/01/10 12:31:03;;;;;;;2.38;0.93;;;;;;;;;;5028965;28;20032;-72
2022/01/10 12:33:30;;;;;;;3.60;0.77;;;;;;;;;;5012340;28;20025;-72
2022/01/10 12:35:56;;;;;;;1.65;0.60;;;;;;;;;;5037501;28;20397;-72
2022/01/10 12:38:24;;;;;;;1.70;0.45;;;;;;;;;;5028861;28;20636;-71
2022/01/10 12:40:53;;;;;;;2.92;0.80;;;;;;;;;;5032624;28;20040;-73
2022/01/10 12:43:20;;;;;;;6.68;1.10;;;;;;;;;;5028538;28;20031;-73
2022/01/10 12:45:48;;;;;;;1.08;0.70;;;;;;;;;;5028216;28;20057;-72
2022/01/10 12:48:15;;;;;;;3.25;0.60;;;;;;;;;;5029109;28;20044;-73
2022/01/10 12:50:42;;;;;;;4.80;0.73;;;;;;;;;;5030395;28;20027;-73
2022/01/10 12:53:09;;;;;;;2.20;1.02;;;;;;;;;;5029685;28;20032;-73
2022/01/10 12:55:35;;;;;;;2.85;1.02;;;;;;;;;;5028760;28;20031;-73
2022/01/10 12:58:04;;;;;;;5.35;1.63;;;;;;;;;;5028172;28;20032;-72
2022/01/10 13:00:31;;;;;;;3.63;0.70;;;;;;;;;;5012128;28;20030;-73
2022/01/10 13:02:59;;;;;;;2.22;1.10;;;;;;;;;;5030896;28;20082;-73
2022/01/10 13:05:26;;;;;;;2.05;0.90;;;;;;;;;;5027615;28;20128;-73
2022/01/10 13:07:53;;;;;;;1.40;0.57;;;;;;;;;;5030652;28;20518;-73
2022/01/10 13:10:30;;;;;;;1.58;0.75;;;;;;;;;;5028102;28;20394;-73
2022/01/10 13:13:01;;;;;;;1.65;0.80;;;;;;;;;;5028133;28;20036;-73
2022/01/10 13:15:33;;;;;;;1.27;0.50;;;;;;;;;;5035430;28;20032;-73
2022/01/10 13:18:01;;;;;;;6.25;0.70;;;;;;;;;;5027332;28;20036;-73
2022/01/10 13:20:35;;;;;;;2.00;0.98;;;;;;;;;;5028945;28;20028;-73
2022/01/10 13:23:04;;;;;;;2.85;0.70;;;;;;;;;;5029798;28;20027;-73
2022/01/10 13:25:42;;;;;;;2.50;0.90;;;;;;;;;;5023329;28;20025;-73
2022/01/10 13:28:09;;;;;;;3.95;0.93;;;;;;;;;;5027664;28;20490;-73
2022/01/10 13:30:37;;;;;;;2.88;0.80;;;;;;;;;;5027626;28;20029;-72
2022/01/10 13:33:08;;;;;;;1.33;0.60;;;;;;;;;;5035561;28;20422;-71
2022/01/10 13:35:36;;;;;;;5.78;2.60;;;;;;;;;;5029492;28;20034;-72
2022/01/10 13:38:07;;;;;;;3.22;1.60;;;;;;;;;;5027530;28;20075;-73
2022/01/10 13:40:43;;;;;;;1.55;0.90;;;;;;;;;;5028559;28;20043;-73
2022/01/10 13:43:12;;;;;;;3.35;1.85;;;;;;;;;;5032227;28;20036;-73
2022/01/10 13:45:49;;;;;;;3.47;0.75;;;;;;;;;;5027608;28;20042;-72
2022/01/10 13:48:25;;;;;;;2.92;1.02;;;;;;;;;;5029265;28;20518;-73
2022/01/10 13:50:54;;;;;;;2.90;0.90;;;;;;;;;;5035629;28;20150;-73
2022/01/10 13:53:28;;;;;;;2.00;0.80;;;;;;;;;;5029246;28;20037;-71
2022/01/10 13:56:13;;;;;;;8.10;2.38;;;;;;;;;;5030345;28;20417;-72
2022/01/10 13:58:43;;;;;;;5.75;1.92;;;;;;;;;;5033272;28;20500;-72
2022/01/10 14:01:11;;;;;;;22.35;8.00;;;;;;;;;;5026756;28;20037;-72
2022/01/10 14:03:37;;;;;;;5.30;1.77;;;;;;;;;;5027605;28;20483;-72
2022/01/10 14:06:13;;;;;;;4.05;1.10;;;;;;;;;;5030452;28;20037;-73
2022/01/10 14:08:41;;;;;;;5.25;1.38;;;;;;;;;;5028128;28;20041;-72
2022/01/10 14:11:08;;;;;;;2.67;1.52;;;;;;;;;;5030876;28;20028;-72
2022/01/10 14:13:35;;;;;;;3.75;1.20;;;;;;;;;;5027263;28;20067;-72
2022/01/10 14:16:01;;;;;;;3.33;1.50;;;;;;;;;;5027274;28;20032;-73
2022/01/10 14:18:28;;;;;;;11.55;4.22;;;;;;;;;;5027130;28;20033;-73
2022/01/10 14:20:54;;;;;;;2.28;1.13;;;;;;;;;;5030013;28;20409;-72
2022/01/10 14:23:21;;;;;;;3.65;1.60;;;;;;;;;;5026860;28;20030;-73
2022/01/10 14:25:47;;;;;;;2.75;1.10;;;;;;;;;;5027146;28;20033;-73
2022/01/10 14:28:13;;;;;;;13.32;4.93;;;;;;;;;;5036867;28;20417;-72
2022/01/10 14:30:40;;;;;;;6.07;1.92;;;;;;;;;;5036847;28;20026;-73
2022/01/10 14:33:07;;;;;;;6.53;1.52;;;;;;;;;;5031732;28;20032;-73
2022/01/10 14:35:33;;;;;;;2.42;1.23;;;;;;;;;;5031515;28;20038;-73
2022/01/10 14:37:59;;;;;;;2.22;1.10;;;;;;;;;;5034891;28;20040;-73
2022/01/10 14:40:26;;;;;;;2.58;1.35;;;;;;;;;;5030782;28;20031;-73
2022/01/10 14:42:52;;;;;;;3.05;1.13;;;;;;;;;;5037104;28;21566;-73
2022/01/10 14:45:19;;;;;;;3.97;1.58;;;;;;;;;;5036284;28;20059;-73
2022/01/10 14:47:45;;;;;;;2.95;1.17;;;;;;;;;;5031486;28;20045;-72
2022/01/10 14:50:15;;;;;;;3.47;1.08;;;;;;;;;;5038799;28;20025;-73
2022/01/10 14:52:41;;;;;;;6.32;1.38;;;;;;;;;;5036199;28;20025;-73